Time;durP1;ratioP1;P1;durP2;ratioP2;P2;SDS_P1;SDS_P2;PMS_P1;PMS_P2;Temp;Humidity;BMP_temperature;BMP_pressure;BME280_temperature;BME280_humidity;BME280_pressure;Samples;Min_cycle;Max_cycle;Signal;HPM_P1;HPM_P2
2019/08/30 00:11:57;;;;;;;7.4;4.4;;;;;;;;;;;;;
2019/08/30 00:14:13;;;;;;;9.9;4.1;;;;;;;;;;;;;
2019/08/30 00:17:31;;;;;;;6.5;4.3;;;;;;;;;;;;;
2019/08/30 00:19:09;;;;;;;6.5;4.2;;;;;;;;;;;;;
2019/08/30 00:21:29;;;;;;;6.7;3.9;;;;;;;;;;;;;
2019/08/30 00:23:54;;;;;;;7.6;4.5;;;;;;;;;;;;;
2019/08/30 00:26:24;;;;;;;9.8;4.5;;;;;;;;;;;;;
2019/08/30 00:28:50;;;;;;;7.6;4;;;;;;;;;;;;;
2019/08/30 00:31:22;;;;;;;7.2;4.2;;;;;;;;;;;;;
2019/08/30 00:33:45;;;;;;;7;4.5;;;;;;;;;;;;;
2019/08/30 00:36:11;;;;;;;8;4.1;;;;;;;;;;;;;
2019/08/30 00:38:37;;;;;;;8.3;4.4;;;;;;;;;;;;;
2019/08/30 00:41:04;;;;;;;5.2;4;;;;;;;;;;;;;
2019/08/30 00:43:28;;;;;;;9.7;4.7;;;;;;;;;;;;;
2019/08/30 00:46:05;;;;;;;8.3;4.4;;;;;;;;;;;;;
2019/08/30 00:48:38;;;;;;;10.2;4.6;;;;;;;;;;;;;
2019/08/30 00:51:03;;;;;;;8.6;4.5;;;;;;;;;;;;;
2019/08/30 00:53:30;;;;;;;11.9;4.6;;;;;;;;;;;;;
2019/08/30 00:55:52;;;;;;;7.3;4.3;;;;;;;;;;;;;
2019/08/30 00:58:25;;;;;;;8.8;4.5;;;;;;;;;;;;;
2019/08/30 01:00:49;;;;;;;9.3;4.9;;;;;;;;;;;;;
2019/08/30 01:03:16;;;;;;;7.1;4.5;;;;;;;;;;;;;
2019/08/30 01:05:41;;;;;;;6.8;4.5;;;;;;;;;;;;;
2019/08/30 01:08:05;;;;;;;7.4;4.6;;;;;;;;;;;;;
2019/08/30 01:10:30;;;;;;;7.5;4.6;;;;;;;;;;;;;
2019/08/30 01:12:58;;;;;;;7.1;4.9;;;;;;;;;;;;;
2019/08/30 01:15:20;;;;;;;8.5;4.6;;;;;;;;;;;;;
2019/08/30 01:17:46;;;;;;;5.1;4.1;;;;;;;;;;;;;
2019/08/30 01:20:25;;;;;;;9.8;4.7;;;;;;;;;;;;;
2019/08/30 01:22:41;;;;;;;8.9;4.9;;;;;;;;;;;;;
2019/08/30 01:25:16;;;;;;;8.9;4.6;;;;;;;;;;;;;
2019/08/30 01:27:41;;;;;;;6.6;5.1;;;;;;;;;;;;;
2019/08/30 01:30:14;;;;;;;7.1;4.6;;;;;;;;;;;;;
2019/08/30 01:32:37;;;;;;;8.9;4.9;;;;;;;;;;;;;
2019/08/30 01:34:59;;;;;;;10.5;4.2;;;;;;;;;;;;;
2019/08/30 01:37:24;;;;;;;8.2;4.4;;;;;;;;;;;;;
2019/08/30 01:40:04;;;;;;;6.2;4.6;;;;;;;;;;;;;
2019/08/30 01:42:29;;;;;;;6.2;4.6;;;;;;;;;;;;;
2019/08/30 01:45:23;;;;;;;11.6;5.8;;;;;;;;;;;;;
2019/08/30 01:47:48;;;;;;;8.3;4.9;;;;;;;;;;;;;
2019/08/30 01:50:25;;;;;;;7.6;4.8;;;;;;;;;;;;;
2019/08/30 01:52:38;;;;;;;8.2;4.7;;;;;;;;;;;;;
2019/08/30 01:55:08;;;;;;;9.3;5;;;;;;;;;;;;;
2019/08/30 01:57:30;;;;;;;8.5;4.7;;;;;;;;;;;;;
2019/08/30 01:59:53;;;;;;;7.5;4.9;;;;;;;;;;;;;
2019/08/30 02:02:23;;;;;;;9.6;4.9;;;;;;;;;;;;;
2019/08/30 02:04:54;;;;;;;8;4.9;;;;;;;;;;;;;
2019/08/30 02:07:19;;;;;;;8.9;4.7;;;;;;;;;;;;;
2019/08/30 02:09:59;;;;;;;9.9;4.6;;;;;;;;;;;;;
2019/08/30 02:12:12;;;;;;;7.5;4.5;;;;;;;;;;;;;
2019/08/30 02:14:37;;;;;;;7.8;4.7;;;;;;;;;;;;;
2019/08/30 02:16:59;;;;;;;6.5;4.6;;;;;;;;;;;;;
2019/08/30 02:19:33;;;;;;;7.3;4.7;;;;;;;;;;;;;
2019/08/30 02:21:57;;;;;;;6.7;4.6;;;;;;;;;;;;;
2019/08/30 02:24:21;;;;;;;8.9;4.5;;;;;;;;;;;;;
2019/08/30 02:26:51;;;;;;;8;4.9;;;;;;;;;;;;;
2019/08/30 02:29:15;;;;;;;10.1;4.6;;;;;;;;;;;;;
2019/08/30 02:31:41;;;;;;;8.8;4.9;;;;;;;;;;;;;
2019/08/30 02:34:07;;;;;;;6;4.7;;;;;;;;;;;;;
2019/08/30 02:36:31;;;;;;;7.4;4.9;;;;;;;;;;;;;
2019/08/30 02:39:05;;;;;;;9.9;4.8;;;;;;;;;;;;;
2019/08/30 02:41:24;;;;;;;6.8;4.9;;;;;;;;;;;;;
2019/08/30 02:46:17;;;;;;;8.5;5.4;;;;;;;;;;;;;
2019/08/30 02:48:46;;;;;;;7.1;5.3;;;;;;;;;;;;;
2019/08/30 02:51:10;;;;;;;8.7;4.8;;;;;;;;;;;;;
2019/08/30 02:53:38;;;;;;;8.7;5.3;;;;;;;;;;;;;
2019/08/30 02:56:03;;;;;;;8.6;5.3;;;;;;;;;;;;;
2019/08/30 02:58:26;;;;;;;8.9;5.7;;;;;;;;;;;;;
2019/08/30 03:00:58;;;;;;;7.9;5.1;;;;;;;;;;;;;
2019/08/30 03:03:17;;;;;;;7.4;4.9;;;;;;;;;;;;;
2019/08/30 03:05:46;;;;;;;8.3;4.9;;;;;;;;;;;;;
2019/08/30 03:08:23;;;;;;;6.9;4.9;;;;;;;;;;;;;
2019/08/30 03:10:41;;;;;;;7.4;5.3;;;;;;;;;;;;;
2019/08/30 03:13:09;;;;;;;9;5.2;;;;;;;;;;;;;
2019/08/30 03:15:34;;;;;;;8.8;5.3;;;;;;;;;;;;;
2019/08/30 03:18:04;;;;;;;8.2;5.2;;;;;;;;;;;;;
2019/08/30 03:20:31;;;;;;;7.3;5.5;;;;;;;;;;;;;
2019/08/30 03:22:55;;;;;;;6.4;5.1;;;;;;;;;;;;;
2019/08/30 03:25:24;;;;;;;8.4;5.5;;;;;;;;;;;;;
2019/08/30 03:30:20;;;;;;;7.8;5.3;;;;;;;;;;;;;
2019/08/30 03:32:45;;;;;;;9.2;5.9;;;;;;;;;;;;;
2019/08/30 03:35:09;;;;;;;7.9;5.8;;;;;;;;;;;;;
2019/08/30 03:37:40;;;;;;;13;5.7;;;;;;;;;;;;;
2019/08/30 03:40:03;;;;;;;10.9;6;;;;;;;;;;;;;
2019/08/30 03:42:38;;;;;;;9.4;5.7;;;;;;;;;;;;;
2019/08/30 03:45:09;;;;;;;10.3;6;;;;;;;;;;;;;
2019/08/30 03:47:33;;;;;;;8.4;5.7;;;;;;;;;;;;;
2019/08/30 03:50:04;;;;;;;9.7;5.9;;;;;;;;;;;;;
2019/08/30 03:52:28;;;;;;;7.5;5.6;;;;;;;;;;;;;
2019/08/30 03:55:02;;;;;;;11.5;5.9;;;;;;;;;;;;;
2019/08/30 03:57:21;;;;;;;11;5.2;;;;;;;;;;;;;
2019/08/30 03:59:55;;;;;;;7.1;5.3;;;;;;;;;;;;;
2019/08/30 04:02:41;;;;;;;8.5;5.6;;;;;;;15.92;86.98633;944.6772;;;;
2019/08/30 04:05:05;;;;;;;7.7;5.5;;;;;;;15.98;86.48047;944.661;;;;
2019/08/30 04:07:43;;;;;;;9.9;6.1;;;;;;;16;86.5166;944.7726;;;;
2019/08/30 04:13:22;;;;;;;9.5;6.2;;;;;;;16.07;85.53516;944.7464;;;;
2019/08/30 04:15:57;;;;;;;8.9;5.7;;;;;;;16.08;85.23926;944.7551;;;;
2019/08/30 04:18:22;;;;;;;10.5;6.5;;;;;;;15.91;85.89941;944.8475;;;;
2019/08/30 04:21:12;;;;;;;9.1;7.6;;;;;;;15.73;86.48633;944.8793;;;;
2019/08/30 04:23:42;;;;;;;9.4;7.1;;;;;;;15.66;86.79785;944.9081;;;;
2019/08/30 04:26:09;;;;;;;16.6;10;;;;;;;15.73;86.34766;944.9548;;;;
2019/08/30 04:28:47;;;;;;;16.3;8;;;;;;;15.7;86.28613;944.9459;;;;
2019/08/30 04:31:16;;;;;;;14.6;8;;;;;;;15.61;86.69434;944.9665;;;;
2019/08/30 04:33:47;;;;;;;19.4;10.5;;;;;;;15.48;87.1543;945.0375;;;;
2019/08/30 04:36:27;;;;;;;10.7;7;;;;;;;15.16;88.5918;944.9648;;;;
2019/08/30 04:38:56;;;;;;;11.8;8;;;;;;;14.94;90.04492;945.0087;;;;
2019/08/30 04:41:22;;;;;;;16.8;8.8;;;;;;;14.98;90.41211;945.0578;;;;
2019/08/30 04:44:02;;;;;;;12.9;7.9;;;;;;;15.34;88.67285;945.024;;;;
2019/08/30 04:46:27;;;;;;;12.7;7.7;;;;;;;15.55;87.42285;945.0577;;;;
2019/08/30 04:48:54;;;;;;;13.5;7.7;;;;;;;15.63;86.94238;945.1362;;;;
2019/08/30 04:51:26;;;;;;;12.5;7.8;;;;;;;15.82;86.31934;945.2129;;;;
2019/08/30 04:54:03;;;;;;;10.9;6.3;;;;;;;15.93;85.80957;945.2065;;;;
2019/08/30 04:56:38;;;;;;;9.5;5.9;;;;;;;16.02;85.46875;945.2169;;;;
2019/08/30 04:59:20;;;;;;;10.8;6;;;;;;;16.05;85.47754;945.1763;;;;
2019/08/30 05:02:02;;;;;;;8.2;6;;;;;;;15.77;86.31055;945.1925;;;;
2019/08/30 05:04:28;;;;;;;9.1;6.2;;;;;;;15.6;87.23535;945.2057;;;;
2019/08/30 05:07:05;;;;;;;9.7;6.1;;;;;;;15.59;87.52246;945.2587;;;;
2019/08/30 05:09:23;;;;;;;10.5;6.2;;;;;;;15.75;86.66504;945.2784;;;;
2019/08/30 05:11:56;;;;;;;9.8;6.3;;;;;;;15.83;86.16113;945.3061;;;;
2019/08/30 05:14:36;;;;;;;8.9;6.4;;;;;;;15.79;86.20996;945.2953;;;;
2019/08/30 05:16:59;;;;;;;13.3;6.6;;;;;;;15.69;86.52539;945.3097;;;;
2019/08/30 05:19:42;;;;;;;10.3;6.3;;;;;;;15.78;86.3125;945.3378;;;;
2019/08/30 05:22:05;;;;;;;11.9;6.2;;;;;;;15.8;86.57031;945.317;;;;
2019/08/30 05:24:41;;;;;;;9.4;6.6;;;;;;;15.76;87.11816;945.3105;;;;
2019/08/30 05:27:08;;;;;;;10.5;6.3;;;;;;;15.94;86.39063;945.3061;;;;
2019/08/30 05:30:20;;;;;;;11.2;6.2;;;;;;;16.16;85.46191;945.2894;;;;
2019/08/30 05:32:48;;;;;;;11.9;6.1;;;;;;;16.24;85.25781;945.3017;;;;
2019/08/30 05:35:19;;;;;;;7.7;6;;;;;;;16;86.28711;945.3519;;;;
2019/08/30 05:37:47;;;;;;;11;6.2;;;;;;;15.83;88.05469;945.3671;;;;
2019/08/30 05:40:15;;;;;;;12.3;5.7;;;;;;;16.05;87.38379;945.3723;;;;
2019/08/30 05:42:53;;;;;;;11.1;5.5;;;;;;;16.51;85.53027;945.3836;;;;
2019/08/30 05:45:30;;;;;;;9.5;5.4;;;;;;;16.9;84.23926;945.3842;;;;
2019/08/30 05:48:01;;;;;;;10.7;5.9;;;;;;;17.39;81.57227;945.3513;;;;
2019/08/30 05:50:28;;;;;;;12.7;6.7;;;;;;;17.82;79.96973;945.3857;;;;
2019/08/30 05:53:04;;;;;;;9.8;6.7;;;;;;;18.51;77.30371;945.3594;;;;
2019/08/30 05:55:35;;;;;;;11.3;7.2;;;;;;;19.22;74.59863;945.3747;;;;
2019/08/30 05:58:14;;;;;;;10.7;6.7;;;;;;;19.82;72.32031;945.3222;;;;
2019/08/30 06:00:58;;;;;;;15;7.5;;;;;;;20.13;71.20508;945.3276;;;;
2019/08/30 06:03:24;;;;;;;19.9;9.2;;;;;;;20.49;70.04785;945.38;;;;
2019/08/30 06:05:56;;;;;;;17.7;9.4;;;;;;;20.91;68.66406;945.3705;;;;
2019/08/30 06:08:28;;;;;;;13.9;8.7;;;;;;;21.22;67.76563;945.3932;;;;
2019/08/30 06:11:02;;;;;;;14.1;8.4;;;;;;;22;65.69238;945.3823;;;;
2019/08/30 06:13:27;;;;;;;11.6;6.5;;;;;;;22.78;62.76758;945.3644;;;;
2019/08/30 06:15:55;;;;;;;8;5.1;;;;;;;23.09;60.36719;945.4211;;;;
2019/08/30 06:18:30;;;;;;;9.7;4.1;;;;;;;23.73;58.05273;945.3909;;;;
2019/08/30 06:20:59;;;;;;;8;4;;;;;;;23.85;57.51465;945.2836;;;;
2019/08/30 06:23:31;;;;;;;6.6;3.3;;;;;;;23.7;57.09668;945.1835;;;;
2019/08/30 06:26:03;;;;;;;7.9;3.4;;;;;;;23.97;56.81348;945.2473;;;;
2019/08/30 06:28:38;;;;;;;4.9;3.5;;;;;;;24.32;55.91406;945.2516;;;;
2019/08/30 06:31:19;;;;;;;7.7;3.7;;;;;;;24.42;55.33887;945.2367;;;;
2019/08/30 06:33:49;;;;;;;10.4;4;;;;;;;25.28;54.60645;945.2755;;;;
2019/08/30 06:36:16;;;;;;;7.2;3.7;;;;;;;25.33;53.39746;945.223;;;;
2019/08/30 06:38:48;;;;;;;7.6;3.7;;;;;;;25.32;53.10059;945.2414;;;;
2019/08/30 06:41:29;;;;;;;6.1;3.1;;;;;;;24.06;55.63574;945.2445;;;;
2019/08/30 06:43:44;;;;;;;8.3;3.2;;;;;;;23.5;58.01172;945.2801;;;;
2019/08/30 06:46:14;;;;;;;8;3.5;;;;;;;23.3;59.65527;945.2733;;;;
2019/08/30 06:49:00;;;;;;;7.1;3.5;;;;;;;23.21;59.77344;945.1755;;;;
2019/08/30 06:51:29;;;;;;;5.7;3.5;;;;;;;22.27;62.50781;945.2137;;;;
2019/08/30 06:53:56;;;;;;;8.6;4;;;;;;;21.84;64.91895;945.1493;;;;
2019/08/30 06:56:27;;;;;;;8.3;3.7;;;;;;;21.54;65.36719;945.1278;;;;
2019/08/30 07:01:22;;;;;;;6.8;3.8;;;;;;;21.2;65.65723;945.1082;;;;
2019/08/30 07:03:56;;;;;;;11.3;3.9;;;;;;;21.78;63.9375;945.1228;;;;
2019/08/30 07:06:19;;;;;;;9.1;4.3;;;;;;;22.72;63.23926;945.1006;;;;
2019/08/30 07:08:52;;;;;;;4.2;3.4;;;;;;;23.93;59.28027;945.1003;;;;
2019/08/30 07:11:16;;;;;;;7.3;3.8;;;;;;;24.62;58.01563;945.0945;;;;
2019/08/30 07:13:59;;;;;;;7.7;3.3;;;;;;;25.54;55.07422;945.1939;;;;
2019/08/30 07:16:16;;;;;;;5.3;3.4;;;;;;;25.86;53.68457;945.1522;;;;
2019/08/30 07:18:43;;;;;;;5.7;3.3;;;;;;;26.66;52.39453;945.1489;;;;
2019/08/30 07:21:08;;;;;;;6.2;3.5;;;;;;;27.31;49.94434;945.0793;;;;
2019/08/30 07:23:42;;;;;;;6;4;;;;;;;27.08;47.91602;945.0842;;;;
2019/08/30 07:26:24;;;;;;;6.3;4;;;;;;;27.09;48.1543;945.0626;;;;
2019/08/30 07:28:51;;;;;;;5.1;3.9;;;;;;;27.88;50.58984;944.997;;;;
2019/08/30 07:31:30;;;;;;;5.2;3.4;;;;;;;28.98;45.28418;944.9966;;;;
2019/08/30 07:33:56;;;;;;;4.4;3.6;;;;;;;29.86;43.94141;945.0435;;;;
2019/08/30 07:36:23;;;;;;;4.6;3.4;;;;;;;30.47;42.35352;945.0363;;;;
2019/08/30 07:39:11;;;;;;;4.2;3.2;;;;;;;30.26;40.53125;945.0331;;;;
2019/08/30 07:41:34;;;;;;;5.6;3.1;;;;;;;31.1;41.26367;945.0758;;;;
2019/08/30 07:44:08;;;;;;;5.3;2.9;;;;;;;32.13;38.37305;945.0606;;;;
2019/08/30 07:46:39;;;;;;;4.3;2.7;;;;;;;30.83;38.44238;945.0563;;;;
2019/08/30 07:49:13;;;;;;;5.1;2.5;;;;;;;29.94;40.19141;945.0797;;;;
2019/08/30 07:51:47;;;;;;;5.8;2.8;;;;;;;31.67;39.74707;945.0995;;;;
2019/08/30 07:54:20;;;;;;;4.3;2.6;;;;;;;32.91;38.59375;945.098;;;;
2019/08/30 07:56:49;;;;;;;5.4;2.7;;;;;;;33.47;35.37109;945.0262;;;;
2019/08/30 07:59:13;;;;;;;5.1;2.8;;;;;;;33.87;36.82227;944.9988;;;;
2019/08/30 08:01:48;;;;;;;4;2.7;;;;;;;34.83;33.40332;944.9941;;;;
2019/08/30 08:04:20;;;;;;;4.4;2.7;;;;;;;35.47;32.14551;945.0492;;;;
2019/08/30 08:06:44;;;;;;;4.9;2.8;;;;;;;35.68;32.2207;945.0901;;;;
2019/08/30 08:09:17;;;;;;;4.9;2.7;;;;;;;36.03;31.21875;945.0188;;;;
2019/08/30 08:12:14;;;;;;;3.3;2.6;;;;;;;36.57;29.2207;945.0072;;;;
2019/08/30 08:14:53;;;;;;;3.8;2.6;;;;;;;37.06;28.06543;944.9689;;;;
2019/08/30 08:17:26;;;;;;;3.6;2.4;;;;;;;36.78;27.92676;944.9207;;;;
2019/08/30 08:19:53;;;;;;;2.9;2.4;;;;;;;36.56;30.24902;944.9146;;;;
2019/08/30 08:22:20;;;;;;;3.8;2.5;;;;;;;35.81;32.59277;944.9279;;;;
2019/08/30 08:25:01;;;;;;;4.4;2.4;;;;;;;34.96;34.52246;944.8745;;;;
2019/08/30 08:27:20;;;;;;;3;2.4;;;;;;;35.95;31.08008;944.8784;;;;
2019/08/30 08:29:47;;;;;;;5.9;2.5;;;;;;;36.56;27.75586;944.81;;;;
2019/08/30 08:32:14;;;;;;;3.2;2.7;;;;;;;36.78;28.08398;944.8176;;;;
2019/08/30 08:34:52;;;;;;;3.7;2.6;;;;;;;37.12;28.68652;944.8069;;;;
2019/08/30 08:37:19;;;;;;;3.9;2.3;;;;;;;37.06;30.36719;944.8171;;;;
2019/08/30 08:40:01;;;;;;;4.5;2.4;;;;;;;36.51;28.27246;944.8113;;;;
2019/08/30 08:42:36;;;;;;;4.3;2.6;;;;;;;36.3;31.53906;944.8782;;;;
2019/08/30 08:45:13;;;;;;;4.8;2.4;;;;;;;35.9;30.0127;944.8132;;;;
2019/08/30 08:47:41;;;;;;;3.3;2.4;;;;;;;34.8;31.92969;944.8834;;;;
2019/08/30 08:50:15;;;;;;;3.9;2.6;;;;;;;34.43;34.33789;944.8909;;;;
2019/08/30 08:52:46;;;;;;;3.9;2.6;;;;;;;35.31;29.83008;944.8831;;;;
2019/08/30 08:55:15;;;;;;;3.5;2.7;;;;;;;35.57;32.02051;944.8574;;;;
2019/08/30 08:57:45;;;;;;;4.1;2.8;;;;;;;34.93;33.91699;944.8698;;;;
2019/08/30 09:00:27;;;;;;;5.4;2.8;;;;;;;34.68;34.12793;944.8237;;;;
2019/08/30 09:03:10;;;;;;;6.2;2.7;;;;;;;34.09;33.54199;944.7483;;;;
2019/08/30 09:05:27;;;;;;;5.1;2.9;;;;;;;33.64;35.99805;944.7167;;;;
2019/08/30 09:07:54;;;;;;;4.9;2.9;;;;;;;33.51;33.83594;944.7841;;;;
2019/08/30 09:10:24;;;;;;;4.7;2.9;;;;;;;32.89;38.23242;944.764;;;;
2019/08/30 09:13:00;;;;;;;3.9;2.9;;;;;;;32.02;39.66992;944.7671;;;;
2019/08/30 09:16:11;;;;;;;3.7;3.2;;;;;;;30.82;41.58496;944.7493;;;;
2019/08/30 09:18:30;;;;;;;3.7;3.2;;;;;;;30.52;43.50391;944.765;;;;
2019/08/30 09:20:53;;;;;;;4.1;2.8;;;;;;;30.53;42.99121;944.8242;;;;
2019/08/30 09:23:19;;;;;;;4.3;3.3;;;;;;;30.59;41.58789;944.7977;;;;
2019/08/30 09:25:49;;;;;;;5.8;3.5;;;;;;;30.25;43.08398;944.7234;;;;
2019/08/30 09:28:21;;;;;;;7;3.2;;;;;;;30.52;43.8877;944.7424;;;;
2019/08/30 09:30:46;;;;;;;4.8;3.2;;;;;;;30.36;41.60254;944.665;;;;
2019/08/30 09:33:11;;;;;;;4.3;3.5;;;;;;;30.24;43.2627;944.7404;;;;
2019/08/30 09:35:47;;;;;;;4.5;3.5;;;;;;;30.05;46.15625;944.713;;;;
2019/08/30 09:38:15;;;;;;;3.9;3.4;;;;;;;30.07;45.05957;944.7252;;;;
2019/08/30 09:40:39;;;;;;;5.5;3.3;;;;;;;29.95;44.49902;944.6958;;;;
2019/08/30 09:43:13;;;;;;;5.1;3.4;;;;;;;29.8;45.59375;944.6809;;;;
2019/08/30 09:45:43;;;;;;;5;3.5;;;;;;;30.17;42.75391;944.6613;;;;
2019/08/30 09:48:17;;;;;;;5.2;3.4;;;;;;;30.28;43.23047;944.6309;;;;
2019/08/30 09:50:50;;;;;;;4;3.4;;;;;;;30.44;45.84961;944.6297;;;;
2019/08/30 09:53:21;;;;;;;4.1;3.5;;;;;;;30.7;44.17969;944.5851;;;;
2019/08/30 09:55:59;;;;;;;4.3;3.6;;;;;;;30.89;44.36426;944.5661;;;;
2019/08/30 10:01:00;;;;;;;4.8;3.6;;;;;;;31.13;42.82129;944.5617;;;;
2019/08/30 10:03:32;;;;;;;5.6;3.5;;;;;;;30.84;42.43555;944.5056;;;;
2019/08/30 10:06:01;;;;;;;4.8;3.6;;;;;;;30.77;43.05078;944.4997;;;;
2019/08/30 10:11:22;;;;;;;4.1;3.6;;;;;;;30.56;44.37988;944.4623;;;;
2019/08/30 10:13:56;;;;;;;5.3;3.4;;;;;;;30.53;44.13867;944.4771;;;;
2019/08/30 10:16:28;;;;;;;3.9;3.5;;;;;;;30.73;44.43359;944.4579;;;;
2019/08/30 10:19:01;;;;;;;7.3;3.7;;;;;;;30.94;44.13086;944.4899;;;;
2019/08/30 10:21:26;;;;;;;4.9;3.5;;;;;;;31.16;43.39941;944.5079;;;;
2019/08/30 10:23:57;;;;;;;5.9;3.5;;;;;;;31.15;43.5293;944.4407;;;;
2019/08/30 10:26:19;;;;;;;3.9;3.5;;;;;;;31.39;42.75098;944.4071;;;;
2019/08/30 10:28:57;;;;;;;6.5;3.7;;;;;;;31.45;43.10254;944.4253;;;;
2019/08/30 10:31:27;;;;;;;4.3;3.7;;;;;;;31.47;44.03906;944.3286;;;;
2019/08/30 10:34:05;;;;;;;4.1;3.7;;;;;;;31.58;43.34277;944.3317;;;;
2019/08/30 10:36:32;;;;;;;4.5;3.5;;;;;;;31.66;44.0332;944.2979;;;;
2019/08/30 10:39:00;;;;;;;3.6;3.3;;;;;;;31.65;41.67285;944.2659;;;;
2019/08/30 10:41:26;;;;;;;5.6;3.7;;;;;;;31.22;42.73438;944.2533;;;;
2019/08/30 10:44:14;;;;;;;5.7;3.9;;;;;;;31.35;42.44727;944.2154;;;;
2019/08/30 10:46:34;;;;;;;6.5;4;;;;;;;31.54;43.98633;944.2391;;;;
2019/08/30 10:49:07;;;;;;;5.5;4.2;;;;;;;31.65;42.01953;944.1714;;;;
2019/08/30 10:51:38;;;;;;;4.8;4.1;;;;;;;31.88;40.91504;944.1188;;;;
2019/08/30 10:54:13;;;;;;;4.6;3.7;;;;;;;32.05;40.17578;944.095;;;;
2019/08/30 10:56:50;;;;;;;4.5;3.6;;;;;;;32.08;39.92676;944.0804;;;;
2019/08/30 10:59:19;;;;;;;5.5;3.7;;;;;;;32.24;41.78613;944.101;;;;
2019/08/30 11:01:48;;;;;;;4.4;4;;;;;;;32.72;40.33105;944.0814;;;;
2019/08/30 11:04:22;;;;;;;4.3;3.9;;;;;;;32.65;38.63281;944.1153;;;;
2019/08/30 11:06:52;;;;;;;5.9;3.5;;;;;;;32.89;39.97363;944.1071;;;;
2019/08/30 11:09:19;;;;;;;5.1;3.9;;;;;;;33.16;40.60938;944.0336;;;;
2019/08/30 11:11:56;;;;;;;4.9;3.4;;;;;;;33.29;38.56641;944.0642;;;;
2019/08/30 11:14:25;;;;;;;4.1;3.6;;;;;;;32.91;40.07129;944.077;;;;
2019/08/30 11:17:05;;;;;;;5.5;3.7;;;;;;;32.61;39.31445;944.0418;;;;
2019/08/30 11:19:35;;;;;;;4.7;3.5;;;;;;;32.64;37.53906;944.0037;;;;
2019/08/30 11:22:10;;;;;;;6.1;4.6;;;;;;;32.41;40.53125;944.0159;;;;
2019/08/30 11:24:37;;;;;;;4.2;3.8;;;;;;;31.87;42.17188;943.9434;;;;
2019/08/30 11:27:15;;;;;;;4.4;3.6;;;;;;;31.96;42.22852;943.9441;;;;
2019/08/30 11:29:55;;;;;;;4.2;3.6;;;;;;;31.82;41.56934;943.9501;;;;
2019/08/30 11:32:22;;;;;;;6;3.7;;;;;;;31.81;43.80762;943.9253;;;;
2019/08/30 11:35:04;;;;;;;4.4;3.8;;;;;;;31.59;43.4043;943.9372;;;;
2019/08/30 11:37:26;;;;;;;5.2;3.8;;;;;;;31.66;42.0332;943.9099;;;;
2019/08/30 11:40:05;;;;;;;4;3.6;;;;;;;31.79;43.39941;943.8994;;;;
2019/08/30 11:42:32;;;;;;;5.3;3.7;;;;;;;31.68;41.19727;943.8519;;;;
2019/08/30 11:45:11;;;;;;;6.2;3.8;;;;;;;31.46;42.44531;943.856;;;;
2019/08/30 11:47:23;;;;;;;4.2;3.8;;;;;;;30.81;44.45215;943.8478;;;;
2019/08/30 11:50:12;;;;;;;5.4;3.7;;;;;;;30.77;43.37305;943.8338;;;;
2019/08/30 11:52:35;;;;;;;4.1;3.7;;;;;;;30.8;44.47559;943.7721;;;;
2019/08/30 11:55:18;;;;;;;4.5;3.8;;;;;;;30.76;45.58301;943.7769;;;;
2019/08/30 11:57:53;;;;;;;4.2;3.8;;;;;;;30.72;44.52832;943.7797;;;;
2019/08/30 12:00:17;;;;;;;5.5;3.8;;;;;;;30.78;44.4502;943.7402;;;;
2019/08/30 12:02:53;;;;;;;4.7;4;;;;;;;30.92;45.07227;943.7468;;;;
2019/08/30 12:05:38;;;;;;;4.3;3.8;;;;;;;30.83;45.57813;943.709;;;;
2019/08/30 12:08:29;;;;;;;4.4;3.7;;;;;;;30.9;45.63379;943.7264;;;;
2019/08/30 12:10:54;;;;;;;4.5;3.7;;;;;;;30.89;45.81152;943.7188;;;;
2019/08/30 12:13:26;;;;;;;4.2;3.6;;;;;;;30.72;43.72656;943.7142;;;;
2019/08/30 12:15:47;;;;;;;4.4;4;;;;;;;30.73;42.50879;943.6866;;;;
2019/08/30 12:18:24;;;;;;;4.5;4.1;;;;;;;30.66;45.19043;943.6501;;;;
2019/08/30 12:20:47;;;;;;;4.1;3.7;;;;;;;30.48;45.73438;943.6464;;;;
2019/08/30 12:23:18;;;;;;;5.5;4.1;;;;;;;30.19;45.87109;943.6002;;;;
2019/08/30 12:25:43;;;;;;;5;3.9;;;;;;;30.23;44.01465;943.6343;;;;
2019/08/30 12:28:15;;;;;;;7.7;3.8;;;;;;;30.3;45.2627;943.589;;;;
2019/08/30 12:30:45;;;;;;;5.4;4;;;;;;;30.28;46.88281;943.5234;;;;
2019/08/30 12:33:14;;;;;;;5.1;4.1;;;;;;;30.3;45.78711;943.5159;;;;
2019/08/30 12:35:47;;;;;;;6;4.4;;;;;;;30.36;47.58496;943.4414;;;;
2019/08/30 12:38:19;;;;;;;5.3;4.5;;;;;;;30.11;47.46289;943.4525;;;;
2019/08/30 12:40:44;;;;;;;5.3;4.2;;;;;;;30.18;46.95703;943.3884;;;;
2019/08/30 12:43:14;;;;;;;4.8;3.8;;;;;;;29.91;48.13281;943.4039;;;;
2019/08/30 12:45:43;;;;;;;6;4.1;;;;;;;29.67;47.8457;943.327;;;;
2019/08/30 12:48:08;;;;;;;5.1;4.5;;;;;;;29.7;50.23438;943.3217;;;;
2019/08/30 12:53:12;;;;;;;5.8;4.2;;;;;;;29.53;49.72656;943.2949;;;;
2019/08/30 12:55:51;;;;;;;6.2;4.4;;;;;;;29.27;50.91309;943.204;;;;
2019/08/30 12:58:26;;;;;;;4.8;4.3;;;;;;;29.61;49.60352;943.1972;;;;
2019/08/30 13:01:00;;;;;;;4.9;4.3;;;;;;;29.8;48.18262;943.2206;;;;
2019/08/30 13:03:33;;;;;;;4.7;4.3;;;;;;;29.95;48.66309;943.1378;;;;
2019/08/30 13:06:04;;;;;;;5.2;4.5;;;;;;;29.55;49.19141;943.1613;;;;
2019/08/30 13:08:36;;;;;;;5.4;4.3;;;;;;;29.69;50.18457;943.0759;;;;
2019/08/30 13:11:10;;;;;;;5.9;4.4;;;;;;;29.52;49.7373;943.0541;;;;
2019/08/30 13:13:40;;;;;;;6.8;5;;;;;;;29.45;50.63574;943.0286;;;;
2019/08/30 13:16:16;;;;;;;7.5;4.7;;;;;;;29.41;51.40527;943.0187;;;;
2019/08/30 13:18:46;;;;;;;6;4.5;;;;;;;29.33;50.30078;942.9702;;;;
2019/08/30 13:21:14;;;;;;;5.2;4.4;;;;;;;29.35;48.12207;942.9789;;;;
2019/08/30 13:23:40;;;;;;;5.7;4.5;;;;;;;29.36;49.51758;942.9373;;;;
2019/08/30 13:26:12;;;;;;;5.1;4.6;;;;;;;29.31;47.73633;942.9556;;;;
2019/08/30 13:28:36;;;;;;;6.8;4.6;;;;;;;29.41;50.0459;942.9055;;;;
2019/08/30 13:31:11;;;;;;;5.9;4.5;;;;;;;29.68;49.61133;942.9117;;;;
2019/08/30 13:33:39;;;;;;;6.8;4.4;;;;;;;29.83;48.75781;942.8825;;;;
2019/08/30 13:36:13;;;;;;;7.7;4.6;;;;;;;29.76;49.8125;942.838;;;;
2019/08/30 13:38:47;;;;;;;5.6;4.7;;;;;;;29.65;49.47754;942.793;;;;
2019/08/30 13:41:41;;;;;;;5.2;4.4;;;;;;;29.6;48.76758;942.8175;;;;
2019/08/30 13:43:46;;;;;;;5.3;4.2;;;;;;;29.54;49.10645;942.757;;;;
2019/08/30 13:46:20;;;;;;;6;4.8;;;;;;;29.58;48.44434;942.777;;;;
2019/08/30 13:49:00;;;;;;;5.5;4.4;;;;;;;29.59;48.52832;942.7564;;;;
2019/08/30 13:51:39;;;;;;;4.9;4.4;;;;;;;29.51;49.18848;942.7686;;;;
2019/08/30 13:54:11;;;;;;;5.1;4.6;;;;;;;29.59;49.38672;942.7156;;;;
2019/08/30 13:56:39;;;;;;;5.3;4.8;;;;;;;29.68;48.26465;942.7209;;;;
2019/08/30 13:59:21;;;;;;;7.6;4.8;;;;;;;29.76;49.8584;942.7053;;;;
2019/08/30 14:01:46;;;;;;;5;4.5;;;;;;;29.61;47.82813;942.6453;;;;
2019/08/30 14:04:17;;;;;;;6.3;5;;;;;;;29.22;48.44238;942.6461;;;;
2019/08/30 14:06:42;;;;;;;7.7;4.8;;;;;;;29.26;49.44531;942.6552;;;;
2019/08/30 14:09:14;;;;;;;5.9;5;;;;;;;29.42;50.60742;942.5697;;;;
2019/08/30 14:11:45;;;;;;;5.2;4.7;;;;;;;29.49;48.58984;942.584;;;;
2019/08/30 14:14:21;;;;;;;6.3;4.6;;;;;;;29.34;50.19434;942.6328;;;;
2019/08/30 14:16:44;;;;;;;5.4;4.5;;;;;;;29.21;49.01172;942.5826;;;;
2019/08/30 14:19:28;;;;;;;7.1;4.6;;;;;;;29.33;50.68164;942.6049;;;;
2019/08/30 14:21:58;;;;;;;4.8;4.3;;;;;;;28.92;48.95703;942.5535;;;;
2019/08/30 14:24:29;;;;;;;6.2;4.9;;;;;;;29.17;49.61523;942.5793;;;;
2019/08/30 14:26:55;;;;;;;5.7;4.7;;;;;;;29.23;49.53809;942.5999;;;;
2019/08/30 14:29:19;;;;;;;4.9;4.4;;;;;;;29.14;48.62305;942.581;;;;
2019/08/30 14:31:52;;;;;;;5.5;4.6;;;;;;;29.15;49.18359;942.5733;;;;
2019/08/30 14:34:24;;;;;;;7.6;4.5;;;;;;;29.32;50.19141;942.5769;;;;
2019/08/30 14:37:05;;;;;;;5.6;4.3;;;;;;;29.34;47.93066;942.537;;;;
2019/08/30 14:40:33;;;;;;;6;4.4;;;;;;;29.31;49.04688;942.5266;;;;
2019/08/30 14:42:43;;;;;;;6.2;4.5;;;;;;;29.23;48.77637;942.5366;;;;
2019/08/30 14:45:18;;;;;;;4.9;4.4;;;;;;;29.44;49.07227;942.5656;;;;
2019/08/30 14:50:55;;;;;;;4.9;4.4;;;;;;;29.16;48.56543;942.5291;;;;
2019/08/30 14:52:55;;;;;;;5.9;4.8;;;;;;;28.9;49.45508;942.494;;;;
2019/08/30 14:56:06;;;;;;;7.1;4.5;;;;;;;28.85;48.85352;942.4752;;;;
2019/08/30 14:58:34;;;;;;;5.4;4.4;;;;;;;28.95;49.59082;942.524;;;;
2019/08/30 15:01:16;;;;;;;6;4.7;;;;;;;28.27;50.07324;942.5114;;;;
2019/08/30 15:03:40;;;;;;;5.7;4.7;;;;;;;28.28;50.08789;942.483;;;;
2019/08/30 15:06:16;;;;;;;5.7;4.4;;;;;;;28.14;50.55859;942.4659;;;;
2019/08/30 15:08:43;;;;;;;5.7;4.7;;;;;;;28.05;50.65527;942.5411;;;;
2019/08/30 15:11:25;;;;;;;5.9;5;;;;;;;27.64;51.6543;942.504;;;;
2019/08/30 15:13:50;;;;;;;6.2;4.8;;;;;;;27.43;52.61523;942.5478;;;;
2019/08/30 15:16:23;;;;;;;6.1;5.1;;;;;;;27.64;53.38672;942.594;;;;
2019/08/30 15:18:58;;;;;;;6.1;5.5;;;;;;;27.74;53.10352;942.5594;;;;
2019/08/30 15:21:50;;;;;;;5.9;5.3;;;;;;;27.8;53.59668;942.5704;;;;
2019/08/30 15:24:25;;;;;;;7.6;5.3;;;;;;;27.75;52.45117;942.5334;;;;
2019/08/30 15:26:57;;;;;;;7.3;5.3;;;;;;;27.66;53.12891;942.5773;;;;
2019/08/30 15:29:34;;;;;;;7.1;5.1;;;;;;;27.76;53.7334;942.5898;;;;
2019/08/30 15:32:31;;;;;;;7;5;;;;;;;27.8;53.82227;942.5229;;;;
2019/08/30 15:36:22;;;;;;;7.3;4.9;;;;;;;27.78;53.32129;942.5511;;;;
2019/08/30 15:37:59;;;;;;;6.1;5.5;;;;;;;27.8;53.38379;942.5898;;;;
2019/08/30 15:41:13;;;;;;;6.6;5.1;;;;;;;27.76;53.24707;942.5887;;;;
2019/08/30 15:43:40;;;;;;;5.6;5;;;;;;;27.46;52.22656;942.5469;;;;
2019/08/30 15:45:57;;;;;;;6.2;5.1;;;;;;;27.43;53.30469;942.4808;;;;
2019/08/30 15:49:02;;;;;;;6.9;5.2;;;;;;;27.24;52.65234;942.4392;;;;
2019/08/30 15:51:35;;;;;;;5.6;5.1;;;;;;;26.97;53.5332;942.4791;;;;
2019/08/30 15:54:17;;;;;;;8.2;5.4;;;;;;;26.93;53.44531;942.4444;;;;
2019/08/30 15:56:51;;;;;;;6.2;4.7;;;;;;;26.89;54.37793;942.4346;;;;
2019/08/30 15:59:11;;;;;;;6.5;5.4;;;;;;;27.17;53.84082;942.4333;;;;
2019/08/30 16:01:44;;;;;;;7.6;5.1;;;;;;;27.24;52.69922;942.4418;;;;
2019/08/30 16:04:10;;;;;;;5.4;4.9;;;;;;;27.37;52.5498;942.4861;;;;
2019/08/30 16:06:43;;;;;;;8.5;4.9;;;;;;;27.4;52.07715;942.4807;;;;
2019/08/30 16:09:16;;;;;;;5.1;4.7;;;;;;;27.33;52.25977;942.4112;;;;
2019/08/30 16:11:48;;;;;;;8.1;4.9;;;;;;;27.31;52.13867;942.4197;;;;
2019/08/30 16:14:32;;;;;;;5.5;4.9;;;;;;;27.29;51.29492;942.4417;;;;
2019/08/30 16:16:59;;;;;;;6;5;;;;;;;27.23;52.27148;942.4528;;;;
2019/08/30 16:19:34;;;;;;;5.1;4.6;;;;;;;27.13;52.4375;942.4764;;;;
2019/08/30 16:21:59;;;;;;;5.2;4.7;;;;;;;26.81;52.09277;942.4208;;;;
2019/08/30 16:24:27;;;;;;;5.4;4.8;;;;;;;26.93;53.05566;942.4344;;;;
2019/08/30 16:26:55;;;;;;;5.3;4.8;;;;;;;26.75;52.77344;942.3682;;;;
2019/08/30 16:29:29;;;;;;;6.4;5.1;;;;;;;26.81;52.85156;942.4241;;;;